Time;durP1;ratioP1;P1;durP2;ratioP2;P2;SDS_P1;SDS_P2;PMS_P1;PMS_P2;Temp;Humidity;BMP_temperature;BMP_pressure;BME280_temperature;BME280_humidity;BME280_pressure;Samples;Min_cycle;Max_cycle;Signal;HPM_P1;HPM_P2
2023/10/30 00:01:47;;;;;;;3.67;3.38;;;11.20;99.90;;;;;;4993923;28;22002;-73
2023/10/30 00:04:14;;;;;;;3.50;3.20;;;11.20;99.90;;;;;;4995810;28;20207;-75
2023/10/30 00:06:41;;;;;;;3.45;3.25;;;11.20;99.90;;;;;;4992138;28;20671;-76
2023/10/30 00:09:08;;;;;;;3.65;3.35;;;11.30;99.90;;;;;;4995580;28;20291;-75
2023/10/30 00:11:35;;;;;;;3.88;3.53;;;11.30;99.90;;;;;;4996800;28;20312;-75
2023/10/30 00:14:04;;;;;;;3.63;3.33;;;11.30;99.90;;;;;;4991764;28;20216;-74
2023/10/30 00:16:32;;;;;;;4.60;4.20;;;11.30;99.90;;;;;;4995078;28;20216;-75
2023/10/30 00:19:02;;;;;;;5.10;4.68;;;11.30;99.90;;;;;;4995195;28;20200;-74
2023/10/30 00:21:29;;;;;;;4.80;4.10;;;11.30;99.90;;;;;;4994770;28;20671;-77
2023/10/30 00:23:56;;;;;;;4.43;4.03;;;11.20;99.90;;;;;;4995403;28;20225;-75
2023/10/30 00:26:23;;;;;;;4.10;3.70;;;11.20;99.90;;;;;;4997007;28;20597;-76
2023/10/30 00:28:51;;;;;;;4.57;4.18;;;11.20;99.90;;;;;;4993542;28;20197;-77
2023/10/30 00:31:18;;;;;;;4.13;3.78;;;11.30;99.90;;;;;;4992042;28;20617;-79
2023/10/30 00:33:47;;;;;;;4.32;3.92;;;11.30;99.90;;;;;;4994162;28;20514;-77
2023/10/30 00:36:14;;;;;;;3.25;3.05;;;11.30;99.90;;;;;;4990805;28;20216;-77
2023/10/30 00:38:40;;;;;;;3.47;3.28;;;11.30;99.90;;;;;;4996748;28;20222;-77
2023/10/30 00:41:10;;;;;;;3.17;2.97;;;11.30;99.90;;;;;;4994212;28;20197;-76
2023/10/30 00:43:37;;;;;;;3.20;3.00;;;11.40;99.90;;;;;;4995046;28;20335;-76
2023/10/30 00:46:06;;;;;;;3.42;3.15;;;11.40;99.90;;;;;;4991378;28;20201;-74
2023/10/30 00:48:33;;;;;;;4.28;3.88;;;11.40;99.90;;;;;;4989354;28;20747;-73
2023/10/30 00:51:01;;;;;;;4.38;3.97;;;11.40;99.90;;;;;;4994618;28;20193;-74
2023/10/30 00:53:28;;;;;;;4.50;4.10;;;11.40;99.90;;;;;;4996610;28;20243;-76
2023/10/30 00:55:55;;;;;;;4.63;4.22;;;11.40;99.90;;;;;;4993149;28;20232;-75
2023/10/30 00:58:22;;;;;;;4.75;4.15;;;11.30;99.90;;;;;;4993800;28;20494;-74
2023/10/30 01:00:50;;;;;;;4.68;4.07;;;11.30;99.90;;;;;;4991906;28;20271;-78
2023/10/30 01:03:19;;;;;;;4.50;4.18;;;11.30;99.90;;;;;;4991180;28;20719;-75
2023/10/30 01:05:47;;;;;;;5.45;4.28;;;11.30;99.90;;;;;;4993541;28;20669;-76
2023/10/30 01:08:16;;;;;;;4.65;4.25;;;11.20;99.90;;;;;;4993407;28;20972;-74
2023/10/30 01:10:42;;;;;;;4.90;4.40;;;11.20;99.90;;;;;;4994811;28;20702;-74
2023/10/30 01:13:09;;;;;;;4.65;4.20;;;11.20;99.90;;;;;;4993682;28;20262;-75
2023/10/30 01:15:37;;;;;;;4.22;3.92;;;11.30;99.90;;;;;;4996392;28;20216;-74
2023/10/30 01:18:04;;;;;;;3.78;3.47;;;11.20;99.90;;;;;;4990589;28;20267;-73
2023/10/30 01:20:31;;;;;;;4.40;4.10;;;11.20;99.90;;;;;;4996666;28;20204;-73
2023/10/30 01:22:58;;;;;;;4.60;4.20;;;11.30;99.90;;;;;;4993473;28;20627;-75
2023/10/30 01:25:26;;;;;;;4.68;4.28;;;11.30;99.90;;;;;;4994916;28;20201;-76
2023/10/30 01:27:53;;;;;;;4.07;3.78;;;11.30;99.90;;;;;;4992305;28;20204;-75
2023/10/30 01:30:20;;;;;;;4.10;3.80;;;11.30;99.90;;;;;;4991592;28;20205;-75
2023/10/30 01:32:47;;;;;;;4.20;3.85;;;11.30;99.90;;;;;;4993126;28;20303;-73
2023/10/30 01:35:14;;;;;;;4.03;3.72;;;11.30;99.90;;;;;;4992537;28;22257;-74
2023/10/30 01:37:42;;;;;;;4.20;3.78;;;11.30;99.90;;;;;;4995729;28;20213;-76
2023/10/30 01:40:11;;;;;;;3.72;3.42;;;11.20;99.90;;;;;;4992936;28;20209;-75
2023/10/30 01:42:39;;;;;;;6.65;3.80;;;11.30;99.90;;;;;;4994070;28;20228;-74
2023/10/30 01:45:07;;;;;;;3.75;3.55;;;11.30;99.90;;;;;;4989940;28;20208;-74
2023/10/30 01:47:34;;;;;;;4.55;4.15;;;11.30;99.90;;;;;;4990625;28;20200;-74
2023/10/30 01:50:02;;;;;;;4.63;4.00;;;11.30;99.90;;;;;;4989421;28;20303;-74
2023/10/30 01:52:31;;;;;;;4.63;4.18;;;11.40;99.90;;;;;;4993275;28;20224;-74
2023/10/30 01:54:58;;;;;;;5.07;4.68;;;11.40;99.90;;;;;;4989384;28;20262;-76
2023/10/30 01:57:28;;;;;;;4.90;4.50;;;11.40;99.90;;;;;;4990725;28;20762;-74
2023/10/30 01:59:58;;;;;;;4.32;4.03;;;11.30;99.90;;;;;;4992061;28;20208;-77
2023/10/30 02:02:26;;;;;;;6.13;4.75;;;11.30;99.90;;;;;;4994063;28;20224;-76
2023/10/30 02:04:53;;;;;;;5.97;4.13;;;11.20;99.90;;;;;;4991465;28;20766;-73
2023/10/30 02:07:20;;;;;;;4.07;3.78;;;11.20;99.90;;;;;;4994355;28;20201;-74
2023/10/30 02:09:47;;;;;;;6.30;4.35;;;11.10;99.90;;;;;;4994786;28;20529;-78
2023/10/30 02:12:14;;;;;;;4.20;3.90;;;11.20;99.90;;;;;;4996289;28;20236;-74
2023/10/30 02:14:41;;;;;;;4.30;4.00;;;11.10;99.90;;;;;;4994573;28;20607;-76
2023/10/30 02:17:09;;;;;;;4.75;4.25;;;11.10;99.90;;;;;;4994490;28;20260;-74
2023/10/30 02:19:36;;;;;;;5.25;4.75;;;11.10;99.90;;;;;;4991432;28;20201;-73
2023/10/30 02:22:03;;;;;;;4.30;4.00;;;11.10;99.90;;;;;;4988959;28;20318;-76
2023/10/30 02:24:30;;;;;;;4.40;4.00;;;11.10;99.90;;;;;;4991019;28;20205;-78
2023/10/30 02:26:59;;;;;;;4.47;4.18;;;11.20;99.90;;;;;;4992608;28;20232;-74
2023/10/30 02:29:26;;;;;;;4.50;4.13;;;11.20;99.90;;;;;;4994152;28;20266;-75
2023/10/30 02:31:54;;;;;;;4.70;4.40;;;11.20;99.90;;;;;;4990882;28;20299;-74
2023/10/30 02:34:21;;;;;;;4.68;4.22;;;11.20;99.90;;;;;;4991492;28;20207;-75
2023/10/30 02:36:48;;;;;;;4.07;3.78;;;11.20;99.90;;;;;;4993440;28;20259;-74
2023/10/30 02:39:15;;;;;;;4.18;3.88;;;11.20;99.90;;;;;;4995151;28;20196;-77
2023/10/30 02:41:42;;;;;;;4.22;3.83;;;11.20;99.90;;;;;;4991884;28;20778;-74
2023/10/30 02:44:10;;;;;;;4.97;4.57;;;11.30;99.90;;;;;;4992736;28;20637;-75
2023/10/30 02:46:37;;;;;;;7.80;6.22;;;11.30;99.90;;;;;;4993203;28;20205;-75
2023/10/30 02:49:04;;;;;;;6.03;5.45;;;11.30;99.90;;;;;;4993786;28;20256;-75
2023/10/30 02:51:31;;;;;;;5.22;4.80;;;11.20;99.90;;;;;;4994694;28;20196;-77
2023/10/30 02:53:58;;;;;;;5.30;4.90;;;11.10;99.90;;;;;;4994689;28;20223;-77
2023/10/30 02:56:25;;;;;;;5.97;5.47;;;11.10;99.90;;;;;;4992048;28;20306;-76
2023/10/30 02:58:52;;;;;;;5.43;4.93;;;11.10;99.90;;;;;;4992326;28;20205;-73
2023/10/30 03:01:21;;;;;;;4.82;4.43;;;11.10;99.90;;;;;;4991473;28;20273;-74
2023/10/30 03:03:48;;;;;;;5.95;5.35;;;11.10;99.90;;;;;;4992537;28;20250;-73
2023/10/30 03:06:14;;;;;;;5.15;4.75;;;11.10;99.90;;;;;;4996227;28;20193;-76
2023/10/30 03:08:41;;;;;;;5.00;4.57;;;11.20;99.90;;;;;;4994814;28;20619;-74
2023/10/30 03:11:08;;;;;;;5.60;5.10;;;11.20;99.90;;;;;;4996891;28;20223;-78
2023/10/30 03:13:35;;;;;;;4.90;4.50;;;11.20;99.90;;;;;;4998700;28;20227;-78
2023/10/30 03:16:02;;;;;;;5.28;4.78;;;11.20;99.90;;;;;;4993275;28;20225;-75
2023/10/30 03:18:31;;;;;;;5.20;4.80;;;11.20;99.90;;;;;;4994763;28;20238;-75
2023/10/30 03:20:58;;;;;;;5.15;4.70;;;11.20;99.90;;;;;;4990069;28;20203;-76
2023/10/30 03:23:25;;;;;;;5.10;4.70;;;11.20;99.90;;;;;;4993460;28;20233;-75
2023/10/30 03:25:52;;;;;;;5.10;4.70;;;11.20;99.90;;;;;;4993419;28;20395;-75
2023/10/30 03:28:19;;;;;;;4.90;4.50;;;11.20;99.90;;;;;;4994096;28;20200;-75
2023/10/30 03:30:46;;;;;;;5.68;5.18;;;11.20;99.90;;;;;;4995376;28;20231;-77
2023/10/30 03:33:13;;;;;;;5.35;4.90;;;11.20;99.90;;;;;;4993785;28;20287;-75
2023/10/30 03:35:41;;;;;;;5.82;4.70;;;11.20;99.90;;;;;;4994598;28;20267;-78
2023/10/30 03:38:08;;;;;;;5.40;4.90;;;11.20;99.90;;;;;;4997021;28;20201;-74
2023/10/30 03:40:36;;;;;;;4.70;4.30;;;11.20;99.90;;;;;;4995659;28;20205;-73
2023/10/30 03:43:03;;;;;;;4.85;4.45;;;11.20;99.90;;;;;;4994914;28;20306;-75
2023/10/30 03:45:29;;;;;;;4.43;4.03;;;11.20;99.90;;;;;;4992155;28;20208;-74
2023/10/30 03:47:56;;;;;;;4.85;4.43;;;11.20;99.90;;;;;;4997101;28;20757;-75
2023/10/30 03:50:23;;;;;;;6.50;4.78;;;11.20;99.90;;;;;;4993500;28;20255;-75
2023/10/30 03:52:52;;;;;;;4.93;4.43;;;11.20;99.90;;;;;;4997218;28;20258;-73
2023/10/30 03:55:19;;;;;;;4.80;4.40;;;11.20;99.90;;;;;;4992169;28;20236;-72
2023/10/30 03:57:46;;;;;;;4.78;4.38;;;11.20;99.90;;;;;;4992791;28;20631;-72
2023/10/30 04:00:13;;;;;;;4.57;4.28;;;11.20;99.90;;;;;;4995128;28;20205;-73
2023/10/30 04:02:41;;;;;;;4.90;4.53;;;11.20;99.90;;;;;;4994444;28;20220;-73
2023/10/30 04:05:08;;;;;;;5.13;4.63;;;11.20;99.90;;;;;;4993223;28;20212;-75
2023/10/30 04:07:35;;;;;;;4.88;4.47;;;11.10;99.90;;;;;;4994467;28;20254;-73
2023/10/30 04:10:04;;;;;;;5.10;4.70;;;11.10;99.90;;;;;;4995013;28;20200;-76
2023/10/30 04:12:31;;;;;;;5.28;4.88;;;11.20;99.90;;;;;;4995923;28;20291;-72
2023/10/30 04:14:59;;;;;;;4.97;4.65;;;11.20;99.90;;;;;;4993326;28;20289;-76
2023/10/30 04:17:26;;;;;;;6.20;5.72;;;11.20;99.90;;;;;;4994185;28;20213;-74
2023/10/30 04:19:52;;;;;;;7.75;7.05;;;11.10;99.90;;;;;;4997175;28;20252;-75
2023/10/30 04:22:19;;;;;;;8.82;8.05;;;11.00;99.90;;;;;;4994318;28;20298;-76
2023/10/30 04:24:46;;;;;;;5.80;5.30;;;11.00;99.90;;;;;;4994956;28;20680;-77
2023/10/30 04:27:15;;;;;;;5.82;5.25;;;11.00;99.90;;;;;;4994569;28;20259;-76
2023/10/30 04:29:42;;;;;;;4.72;4.40;;;11.00;99.90;;;;;;4991393;28;20780;-75
2023/10/30 04:32:09;;;;;;;5.45;5.05;;;11.10;99.90;;;;;;4994064;28;20217;-78
2023/10/30 04:34:36;;;;;;;4.93;4.53;;;11.10;99.90;;;;;;4998268;28;20212;-75
2023/10/30 04:37:03;;;;;;;5.22;4.65;;;11.10;99.90;;;;;;4996573;28;20236;-75
2023/10/30 04:39:30;;;;;;;4.40;4.10;;;11.10;99.90;;;;;;4991493;28;20209;-74
2023/10/30 04:41:56;;;;;;;4.78;4.43;;;11.10;99.90;;;;;;4997891;28;20213;-76
2023/10/30 04:44:25;;;;;;;4.88;4.50;;;11.20;99.90;;;;;;4993438;28;20205;-77
2023/10/30 04:46:52;;;;;;;46.75;7.88;;;11.20;99.90;;;;;;4995239;28;20252;-75
2023/10/30 04:49:19;;;;;;;38.15;7.65;;;11.20;99.90;;;;;;4995123;28;20266;-78
2023/10/30 04:51:46;;;;;;;6.22;5.43;;;11.20;99.90;;;;;;4992239;28;20793;-75
2023/10/30 04:54:13;;;;;;;548.47;25.08;;;11.10;99.90;;;;;;4993580;28;20201;-74
2023/10/30 04:56:40;;;;;;;5.10;4.78;;;11.10;99.90;;;;;;4997174;28;20216;-73
2023/10/30 04:59:07;;;;;;;4.53;4.22;;;11.00;99.90;;;;;;4995048;28;20255;-76
2023/10/30 05:01:35;;;;;;;4.15;3.85;;;11.10;99.90;;;;;;4993528;28;21465;-78
2023/10/30 05:04:03;;;;;;;4.28;3.97;;;11.10;99.90;;;;;;4995203;28;20228;-74
2023/10/30 05:06:30;;;;;;;4.50;4.20;;;11.10;99.90;;;;;;4990977;28;20284;-76
2023/10/30 05:08:57;;;;;;;4.45;4.13;;;11.10;99.90;;;;;;4994425;28;20291;-74
2023/10/30 05:11:24;;;;;;;4.22;3.90;;;11.10;99.90;;;;;;4991010;28;20205;-75
2023/10/30 05:13:51;;;;;;;4.70;4.30;;;11.10;99.90;;;;;;4994482;28;20281;-75
2023/10/30 05:16:18;;;;;;;4.15;3.85;;;11.10;99.90;;;;;;4989871;28;20665;-77
2023/10/30 05:18:46;;;;;;;4.60;4.20;;;11.20;99.90;;;;;;4994159;28;20267;-75
2023/10/30 05:21:13;;;;;;;5.18;4.75;;;11.20;99.90;;;;;;4992863;28;20270;-76
2023/10/30 05:23:40;;;;;;;5.20;4.80;;;11.20;99.90;;;;;;4991097;28;20275;-75
2023/10/30 05:26:07;;;;;;;4.70;4.30;;;11.20;99.90;;;;;;4991083;28;20240;-79
2023/10/30 05:28:34;;;;;;;4.45;4.15;;;11.20;99.90;;;;;;4991612;28;20212;-77
2023/10/30 05:31:06;;;;;;;4.45;4.15;;;11.30;99.90;;;;;;4990642;28;20587;-75
2023/10/30 05:33:34;;;;;;;4.30;4.00;;;11.30;99.90;;;;;;4989459;28;20279;-76
2023/10/30 05:36:03;;;;;;;4.35;3.97;;;11.30;99.90;;;;;;4993835;28;20208;-75
2023/10/30 05:38:30;;;;;;;3.97;3.67;;;11.30;99.90;;;;;;4989652;28;20201;-76
2023/10/30 05:40:57;;;;;;;4.10;3.80;;;11.30;99.90;;;;;;4995608;28;20230;-78
2023/10/30 05:43:24;;;;;;;3.80;3.50;;;11.30;99.90;;;;;;4991171;28;20766;-74
2023/10/30 05:45:51;;;;;;;3.95;3.65;;;11.40;99.90;;;;;;4991295;28;20213;-75
2023/10/30 05:48:19;;;;;;;4.10;3.75;;;11.30;99.90;;;;;;4989939;28;20197;-77
2023/10/30 05:50:45;;;;;;;4.20;3.80;;;11.40;99.90;;;;;;4992143;28;20224;-74
2023/10/30 05:53:14;;;;;;;4.85;4.45;;;11.40;99.90;;;;;;4992139;28;20244;-78
2023/10/30 05:55:41;;;;;;;117.10;7.38;;;11.40;99.90;;;;;;4989881;28;20205;-77
2023/10/30 05:58:08;;;;;;;30.45;6.28;;;11.30;99.90;;;;;;4993129;28;20221;-76
2023/10/30 06:00:35;;;;;;;114.30;10.15;;;11.30;99.90;;;;;;4993073;28;20207;-74
2023/10/30 06:03:02;;;;;;;6.03;5.53;;;11.20;99.90;;;;;;4993165;28;21006;-75
2023/10/30 06:05:29;;;;;;;25.88;5.43;;;11.10;99.90;;;;;;4993430;28;20269;-78
2023/10/30 06:07:56;;;;;;;30.30;5.90;;;11.00;99.90;;;;;;4994053;28;20676;-77
2023/10/30 06:10:24;;;;;;;4.57;4.28;;;11.00;99.90;;;;;;4990875;28;20200;-79
2023/10/30 06:12:51;;;;;;;5.28;4.88;;;11.00;99.90;;;;;;4992302;28;20509;-77
2023/10/30 06:15:18;;;;;;;4.65;4.32;;;11.00;99.90;;;;;;4993551;28;20251;-78
2023/10/30 06:17:45;;;;;;;4.53;4.13;;;11.00;99.90;;;;;;4990415;28;20308;-73
2023/10/30 06:20:12;;;;;;;4.13;3.83;;;11.00;99.90;;;;;;4992116;28;22051;-76
2023/10/30 06:22:39;;;;;;;4.78;4.38;;;11.00;99.90;;;;;;4991502;28;20216;-76
2023/10/30 06:25:07;;;;;;;4.50;4.20;;;11.00;99.90;;;;;;4993225;28;20200;-79
2023/10/30 06:27:35;;;;;;;4.78;4.38;;;11.10;99.90;;;;;;4990959;28;20494;-75
2023/10/30 06:30:02;;;;;;;4.40;4.10;;;11.10;99.90;;;;;;4991099;28;20197;-76
2023/10/30 06:32:30;;;;;;;4.15;3.85;;;11.20;99.90;;;;;;4995420;28;20302;-74
2023/10/30 06:34:57;;;;;;;11.95;5.43;;;11.20;99.90;;;;;;4989819;28;20288;-75
2023/10/30 06:37:24;;;;;;;4.80;4.50;;;11.20;99.90;;;;;;4989983;28;20715;-75
2023/10/30 06:39:51;;;;;;;4.85;4.43;;;11.10;99.90;;;;;;4992640;28;20204;-77
2023/10/30 06:42:18;;;;;;;5.03;4.60;;;11.10;99.90;;;;;;4993945;28;20287;-79
2023/10/30 06:44:46;;;;;;;4.55;4.25;;;11.10;99.90;;;;;;4991914;28;20290;-78
2023/10/30 06:47:13;;;;;;;4.25;3.95;;;11.20;99.90;;;;;;4989554;28;20197;-75
2023/10/30 06:49:40;;;;;;;4.47;4.18;;;11.20;99.90;;;;;;4990051;28;20301;-77
2023/10/30 06:52:07;;;;;;;4.38;4.07;;;11.20;99.90;;;;;;4990985;28;20723;-74
2023/10/30 06:54:34;;;;;;;4.63;4.22;;;11.20;99.90;;;;;;4985625;28;20232;-76
2023/10/30 06:57:01;;;;;;;4.20;3.90;;;11.30;99.90;;;;;;4989442;28;20820;-77
2023/10/30 06:59:29;;;;;;;4.20;3.90;;;11.30;99.90;;;;;;4988238;28;20205;-73
2023/10/30 07:01:57;;;;;;;4.25;3.95;;;11.40;99.90;;;;;;4992212;28;20196;-77
2023/10/30 07:04:24;;;;;;;3.85;3.55;;;11.40;99.90;;;;;;4985880;28;20209;-75
2023/10/30 07:06:51;;;;;;;5.10;4.70;;;11.40;99.90;;;;;;4985551;28;20828;-72
2023/10/30 07:09:19;;;;;;;4.72;4.43;;;11.50;99.90;;;;;;4989782;28;20288;-75
2023/10/30 07:11:46;;;;;;;4.78;4.38;;;11.50;99.90;;;;;;4985761;28;20680;-75
2023/10/30 07:14:13;;;;;;;4.60;4.30;;;11.50;99.90;;;;;;4989333;28;20208;-75
2023/10/30 07:16:40;;;;;;;4.90;4.50;;;11.50;99.90;;;;;;4989211;28;20200;-75
2023/10/30 07:19:09;;;;;;;4.90;4.50;;;11.60;99.90;;;;;;4986544;28;20240;-72
2023/10/30 07:21:36;;;;;;;4.82;4.43;;;11.80;99.90;;;;;;4990438;28;20234;-75
2023/10/30 07:24:03;;;;;;;5.53;5.03;;;11.80;99.90;;;;;;4988953;28;20227;-73
2023/10/30 07:26:30;;;;;;;5.60;5.07;;;11.90;99.90;;;;;;4988666;28;20192;-74
2023/10/30 07:28:57;;;;;;;4.80;4.40;;;11.90;99.90;;;;;;4984169;28;20204;-73
2023/10/30 07:31:24;;;;;;;5.22;4.72;;;11.90;99.90;;;;;;4988111;28;20295;-73
2023/10/30 07:33:52;;;;;;;5.10;4.70;;;11.90;99.90;;;;;;4985087;28;20841;-74
2023/10/30 07:36:20;;;;;;;5.03;4.63;;;11.90;99.90;;;;;;4985852;28;20588;-73
2023/10/30 07:38:48;;;;;;;76.18;8.60;;;11.90;99.90;;;;;;4988240;28;20229;-77
2023/10/30 07:41:15;;;;;;;100.35;10.10;;;11.90;99.90;;;;;;4989727;28;20201;-73
2023/10/30 07:43:42;;;;;;;8.07;5.90;;;11.80;99.90;;;;;;4984619;28;20221;-73
2023/10/30 07:46:13;;;;;;;6.72;5.35;;;11.80;99.90;;;;;;4980490;28;22089;-75
2023/10/30 07:48:40;;;;;;;5.13;4.70;;;11.80;99.90;;;;;;4984518;28;20204;-76
2023/10/30 07:51:07;;;;;;;4.70;4.30;;;11.80;99.90;;;;;;4979507;28;20287;-75
2023/10/30 07:53:37;;;;;;;5.13;4.72;;;11.90;99.90;;;;;;4982098;28;20315;-73
2023/10/30 07:56:04;;;;;;;8.13;4.60;;;12.00;99.90;;;;;;4983938;28;20293;-75
2023/10/30 07:58:32;;;;;;;7.13;5.13;;;12.10;99.90;;;;;;4986441;28;20240;-76
2023/10/30 08:00:59;;;;;;;5.22;4.75;;;12.10;99.90;;;;;;4985369;28;20193;-74
2023/10/30 08:03:26;;;;;;;6.53;5.90;;;12.10;99.90;;;;;;4988100;28;20702;-73
2023/10/30 08:05:53;;;;;;;11.32;5.28;;;12.10;99.90;;;;;;4988843;28;20272;-75
2023/10/30 08:08:21;;;;;;;11.32;5.65;;;12.10;99.90;;;;;;4988843;28;20251;-75
2023/10/30 08:10:51;;;;;;;6.07;5.57;;;12.10;99.90;;;;;;4987558;28;20201;-75
2023/10/30 08:13:18;;;;;;;90.30;8.57;;;12.10;99.90;;;;;;4991989;28;20228;-73
2023/10/30 08:15:45;;;;;;;99.72;8.52;;;12.10;99.90;;;;;;4993347;28;20278;-76
2023/10/30 08:18:12;;;;;;;25.13;6.38;;;12.00;99.90;;;;;;4990030;28;20208;-74
2023/10/30 08:20:39;;;;;;;7.10;5.70;;;11.90;99.90;;;;;;4987790;28;20586;-76
2023/10/30 08:23:06;;;;;;;36.67;7.75;;;11.90;99.90;;;;;;4989822;28;20636;-73
2023/10/30 08:25:33;;;;;;;6.18;5.63;;;11.80;99.90;;;;;;4992512;28;20224;-75
2023/10/30 08:28:02;;;;;;;6.65;6.10;;;11.70;99.90;;;;;;4990008;28;20262;-73
2023/10/30 08:30:29;;;;;;;7.28;5.93;;;11.70;99.90;;;;;;4993551;28;20240;-74
2023/10/30 08:32:57;;;;;;;6.57;5.57;;;11.70;99.90;;;;;;4988776;28;20314;-75
2023/10/30 08:35:23;;;;;;;6.15;5.60;;;11.70;99.90;;;;;;4988057;28;20200;-75
2023/10/30 08:37:50;;;;;;;6.15;5.65;;;11.70;99.90;;;;;;4990204;28;20765;-75
2023/10/30 08:40:17;;;;;;;5.10;4.70;;;11.70;99.90;;;;;;4989282;28;20258;-73
2023/10/30 08:42:44;;;;;;;4.90;4.50;;;11.80;99.90;;;;;;4990690;28;20275;-75
2023/10/30 08:45:13;;;;;;;5.13;4.63;;;11.90;99.90;;;;;;4992109;28;20199;-74
2023/10/30 08:47:40;;;;;;;6.10;5.63;;;12.00;99.90;;;;;;4994605;28;20204;-73
2023/10/30 08:50:08;;;;;;;6.22;5.72;;;12.10;99.90;;;;;;4993632;28;20205;-74
2023/10/30 08:52:35;;;;;;;6.80;6.10;;;12.10;99.90;;;;;;4990800;28;20225;-74
2023/10/30 08:55:02;;;;;;;5.90;5.43;;;12.10;99.90;;;;;;4994265;28;20208;-73
2023/10/30 08:57:29;;;;;;;7.57;6.55;;;12.10;99.90;;;;;;4993569;28;20239;-73
2023/10/30 08:59:56;;;;;;;15.07;7.80;;;12.10;99.90;;;;;;4991298;28;20868;-75
2023/10/30 09:02:25;;;;;;;6.80;6.20;;;12.00;99.90;;;;;;4994322;28;20855;-73
2023/10/30 09:04:52;;;;;;;6.00;5.50;;;11.90;99.90;;;;;;4991210;28;20205;-73
2023/10/30 09:07:19;;;;;;;25.88;23.58;;;11.90;99.90;;;;;;4993323;28;20773;-73
2023/10/30 09:09:47;;;;;;;15.90;14.50;;;11.90;99.90;;;;;;4992172;28;20750;-73
2023/10/30 09:12:14;;;;;;;10.88;9.98;;;11.80;99.90;;;;;;4991269;28;20228;-71
2023/10/30 09:14:41;;;;;;;8.70;8.10;;;11.80;99.90;;;;;;4991023;28;20205;-74
2023/10/30 09:17:08;;;;;;;8.18;7.47;;;11.80;99.90;;;;;;4988270;28;20208;-76
2023/10/30 09:19:37;;;;;;;6.20;5.80;;;11.90;99.90;;;;;;4986050;28;20229;-74
2023/10/30 09:22:04;;;;;;;5.80;5.40;;;11.90;99.90;;;;;;4991364;28;20236;-73
2023/10/30 09:24:31;;;;;;;5.75;5.35;;;12.00;99.90;;;;;;4990657;28;20255;-73
2023/10/30 09:26:58;;;;;;;46.95;7.93;;;12.00;99.90;;;;;;4991111;28;20201;-74
2023/10/30 09:29:25;;;;;;;27.00;7.03;;;12.00;99.90;;;;;;4986903;28;20196;-74
2023/10/30 09:31:52;;;;;;;165.10;12.40;;;11.90;99.90;;;;;;4989953;28;20219;-74
2023/10/30 09:34:19;;;;;;;5.38;4.95;;;11.80;99.90;;;;;;4993150;28;20264;-73
2023/10/30 09:36:47;;;;;;;6.55;5.93;;;11.80;99.90;;;;;;4990480;28;20255;-75
2023/10/30 09:39:14;;;;;;;7.18;6.57;;;11.90;99.90;;;;;;4989413;28;20295;-75
2023/10/30 09:41:43;;;;;;;6.68;6.18;;;12.10;99.90;;;;;;4991284;28;20681;-74
2023/10/30 09:44:11;;;;;;;5.80;5.40;;;12.50;99.90;;;;;;4988603;28;20197;-74
2023/10/30 09:46:39;;;;;;;5.95;5.50;;;12.90;99.90;;;;;;4986436;28;20208;-74
2023/10/30 09:49:08;;;;;;;5.90;5.40;;;13.10;99.90;;;;;;4989466;28;20228;-72
2023/10/30 09:51:37;;;;;;;6.10;5.55;;;13.00;99.90;;;;;;4988777;28;20204;-73
2023/10/30 09:54:07;;;;;;;8.98;5.53;;;13.00;99.90;;;;;;4990380;28;20282;-73
2023/10/30 09:56:35;;;;;;;6.53;5.05;;;12.80;99.90;;;;;;4990244;28;20259;-74
2023/10/30 09:59:02;;;;;;;6.47;5.88;;;12.60;99.90;;;;;;4992162;28;20213;-73
2023/10/30 10:01:29;;;;;;;5.68;5.18;;;12.40;99.90;;;;;;4993887;28;20543;-73
2023/10/30 10:03:57;;;;;;;5.32;4.93;;;12.30;99.90;;;;;;4998824;28;20217;-75
2023/10/30 10:06:24;;;;;;;5.15;4.75;;;12.30;99.90;;;;;;4998348;28;20255;-75
2023/10/30 10:08:51;;;;;;;5.65;5.25;;;12.30;99.90;;;;;;4988468;28;20590;-74
2023/10/30 10:11:23;;;;;;;5.90;5.40;;;12.30;99.90;;;;;;4988236;28;20247;-73
2023/10/30 10:13:53;;;;;;;5.15;4.75;;;12.30;99.90;;;;;;4984086;28;20228;-73
2023/10/30 10:16:26;;;;;;;4.68;4.25;;;12.40;99.90;;;;;;4986531;28;20841;-72
2023/10/30 10:18:53;;;;;;;4.88;4.47;;;12.50;99.90;;;;;;4985251;28;20212;-70
2023/10/30 10:21:22;;;;;;;4.50;4.20;;;12.60;99.90;;;;;;4985328;28;20201;-71
2023/10/30 10:23:49;;;;;;;5.30;4.85;;;12.70;99.90;;;;;;4985719;28;20764;-70
2023/10/30 10:26:17;;;;;;;5.05;4.65;;;12.80;99.90;;;;;;4985405;28;20579;-70
2023/10/30 10:28:47;;;;;;;5.25;4.85;;;12.90;99.90;;;;;;4987310;28;20256;-70
2023/10/30 10:31:14;;;;;;;6.82;6.13;;;13.00;99.90;;;;;;4989023;28;20330;-70
2023/10/30 10:33:42;;;;;;;13.52;6.05;;;13.10;99.90;;;;;;4988094;28;20227;-70
2023/10/30 10:36:13;;;;;;;7.25;6.65;;;13.10;99.90;;;;;;4984804;28;20283;-70
2023/10/30 10:38:41;;;;;;;7.57;6.88;;;13.10;99.90;;;;;;4983335;28;20220;-71
2023/10/30 10:41:10;;;;;;;8.50;7.70;;;13.20;99.90;;;;;;4985141;28;20208;-69
2023/10/30 10:43:38;;;;;;;7.28;6.65;;;13.20;99.90;;;;;;4985441;28;20292;-69
2023/10/30 10:46:06;;;;;;;14.05;9.10;;;13.20;99.90;;;;;;4982121;28;20197;-72
2023/10/30 10:48:33;;;;;;;541.90;29.52;;;13.10;99.90;;;;;;4987451;28;20200;-71
2023/10/30 10:51:03;;;;;;;1135.38;43.05;;;12.90;99.90;;;;;;4986203;28;20303;-71
2023/10/30 10:53:31;;;;;;;45.38;8.05;;;12.70;99.90;;;;;;4987499;28;20228;-71
2023/10/30 10:56:04;;;;;;;6.50;5.90;;;12.70;99.90;;;;;;4990411;28;20275;-70
2023/10/30 10:58:41;;;;;;;7.05;6.45;;;12.60;99.90;;;;;;4990250;28;20227;-71
2023/10/30 11:01:16;;;;;;;7.13;6.47;;;12.60;99.90;;;;;;4986445;28;20678;-71
2023/10/30 11:03:44;;;;;;;7.03;6.43;;;12.60;99.90;;;;;;4988372;28;20761;-71
2023/10/30 11:06:12;;;;;;;5.80;5.30;;;12.60;99.90;;;;;;4986155;28;20205;-71
2023/10/30 11:08:49;;;;;;;7.82;7.22;;;12.70;99.90;;;;;;4986992;28;20200;-71
2023/10/30 11:11:23;;;;;;;13.70;7.00;;;12.80;99.90;;;;;;4988482;28;20204;-71
2023/10/30 11:14:02;;;;;;;12.68;6.50;;;12.80;99.90;;;;;;4988122;28;20437;-71
2023/10/30 11:16:36;;;;;;;6.07;5.57;;;12.80;99.90;;;;;;4988377;28;20212;-70
2023/10/30 11:19:04;;;;;;;7.60;5.97;;;12.70;99.90;;;;;;4991310;28;20836;-71
2023/10/30 11:21:31;;;;;;;20.30;6.68;;;12.70;99.90;;;;;;4989677;28;20204;-71
2023/10/30 11:23:59;;;;;;;5.93;5.43;;;12.70;99.90;;;;;;4983440;28;20225;-71
2023/10/30 11:26:47;;;;;;;7.35;6.30;;;12.60;99.90;;;;;;4990007;28;20428;-70
2023/10/30 11:29:17;;;;;;;6.13;5.60;;;12.60;99.90;;;;;;4978982;28;20251;-71
2023/10/30 11:32:03;;;;;;;5.53;5.03;;;12.60;99.90;;;;;;4986625;28;20232;-70
2023/10/30 11:34:32;;;;;;;5.95;5.40;;;12.60;99.90;;;;;;4987860;28;20607;-71
2023/10/30 11:37:02;;;;;;;5.47;5.07;;;12.60;99.90;;;;;;4985527;28;20295;-74
2023/10/30 11:39:34;;;;;;;5.55;4.97;;;12.60;99.90;;;;;;4990551;28;20714;-72
2023/10/30 11:42:01;;;;;;;5.60;5.20;;;12.60;99.90;;;;;;4989512;28;20234;-72
2023/10/30 11:44:31;;;;;;;5.28;4.78;;;12.60;99.90;;;;;;4987154;28;20212;-74
2023/10/30 11:47:00;;;;;;;5.30;4.80;;;12.70;99.90;;;;;;4989877;28;20212;-72
2023/10/30 11:49:32;;;;;;;9.05;8.18;;;12.70;99.90;;;;;;4999251;28;20252;-71
2023/10/30 11:51:59;;;;;;;8.18;7.28;;;12.70;99.90;;;;;;5001516;28;20591;-72
2023/10/30 11:54:32;;;;;;;6.90;6.40;;;12.70;99.90;;;;;;5016230;28;20204;-73
2023/10/30 11:57:00;;;;;;;5.63;5.22;;;12.70;99.90;;;;;;5000387;28;20200;-73
2023/10/30 11:59:27;;;;;;;5.55;5.15;;;12.70;99.90;;;;;;4995981;28;20276;-72
2023/10/30 12:01:57;;;;;;;7.32;6.50;;;12.70;99.90;;;;;;4999472;28;20259;-72
2023/10/30 12:04:26;;;;;;;6.00;5.50;;;12.80;99.90;;;;;;4998244;28;20222;-72
2023/10/30 12:06:54;;;;;;;6.15;5.65;;;12.70;99.90;;;;;;4999412;28;20713;-72
2023/10/30 12:09:22;;;;;;;48.67;8.93;;;12.70;99.90;;;;;;4996554;28;20226;-72
2023/10/30 12:11:50;;;;;;;9.90;6.32;;;12.70;99.90;;;;;;4996976;28;20926;-74
2023/10/30 12:14:19;;;;;;;9.52;5.60;;;12.70;99.90;;;;;;4995531;28;20302;-72
2023/10/30 12:16:48;;;;;;;188.75;13.20;;;12.70;99.90;;;;;;4996144;28;20759;-71
2023/10/30 12:19:16;;;;;;;162.57;12.77;;;12.60;99.90;;;;;;4991408;28;20217;-71
2023/10/30 12:21:44;;;;;;;32.08;19.15;;;12.60;99.90;;;;;;4995301;28;20251;-73
2023/10/30 12:24:11;;;;;;;24.95;16.40;;;12.50;99.90;;;;;;4992911;28;20494;-72
2023/10/30 12:26:41;;;;;;;21.13;14.32;;;12.60;99.90;;;;;;4993413;28;20215;-72
2023/10/30 12:29:08;;;;;;;18.27;13.80;;;12.60;99.90;;;;;;4993345;28;20196;-71
2023/10/30 12:31:36;;;;;;;62.05;37.25;;;12.70;99.90;;;;;;4996111;28;20200;-72
2023/10/30 12:34:14;;;;;;;81.85;46.60;;;12.70;99.90;;;;;;4998436;28;20278;-72
2023/10/30 12:36:41;;;;;;;58.05;34.03;;;12.80;99.90;;;;;;4990613;28;20292;-74
2023/10/30 12:39:14;;;;;;;41.47;26.42;;;12.80;99.90;;;;;;4997671;28;20287;-72
2023/10/30 12:41:41;;;;;;;31.58;21.15;;;12.90;99.90;;;;;;4999094;28;20623;-72
2023/10/30 12:44:08;;;;;;;28.80;20.17;;;12.90;99.90;;;;;;4995269;28;20208;-72
2023/10/30 12:46:35;;;;;;;22.75;16.25;;;12.90;99.90;;;;;;4998255;28;20257;-74